createdAt,value
2018-12-02T00:02:59.868Z,984.30
2018-12-02T00:12:59.933Z,984.12
2018-12-02T00:22:59.930Z,983.91
2018-12-02T00:33:00.895Z,983.57
2018-12-02T00:42:59.943Z,983.45
2018-12-02T00:52:59.885Z,983.37
2018-12-02T01:02:59.978Z,983.28
2018-12-02T01:12:59.862Z,983.12
2018-12-02T01:22:59.910Z,983.11
2018-12-02T01:32:59.985Z,982.81
2018-12-02T01:42:59.841Z,982.79
2018-12-02T01:52:59.938Z,982.70
2018-12-02T02:02:59.930Z,982.54
2018-12-02T02:13:00.599Z,982.52
2018-12-02T02:22:59.840Z,982.35
2018-12-02T02:32:59.937Z,982.40
2018-12-02T02:42:59.896Z,982.21
2018-12-02T02:52:59.961Z,982.04
2018-12-02T03:02:59.875Z,981.99
2018-12-02T03:12:59.923Z,981.64
2018-12-02T03:22:59.916Z,981.45
2018-12-02T03:32:59.880Z,981.42
2018-12-02T03:42:59.912Z,981.17
2018-12-02T03:52:59.891Z,981.14
2018-12-02T04:02:59.924Z,980.95
2018-12-02T04:12:59.910Z,980.94
2018-12-02T04:22:59.873Z,980.73
2018-12-02T04:32:59.822Z,980.79
2018-12-02T04:42:59.839Z,980.85
2018-12-02T04:52:59.868Z,980.50
2018-12-02T05:02:59.829Z,980.36
2018-12-02T05:12:59.816Z,979.92
2018-12-02T05:22:59.921Z,979.78
2018-12-02T05:32:59.821Z,979.87
2018-12-02T05:42:59.881Z,979.62
2018-12-02T05:52:59.807Z,980.00
2018-12-02T06:03:02.219Z,980.10
2018-12-02T06:12:59.838Z,980.04
2018-12-02T06:22:59.900Z,979.99
2018-12-02T06:32:59.872Z,979.73
2018-12-02T06:42:59.850Z,979.89
2018-12-02T06:52:59.841Z,979.88
2018-12-02T07:02:59.812Z,979.81
2018-12-02T07:12:59.870Z,979.88
2018-12-02T07:22:59.836Z,979.70
2018-12-02T07:32:59.777Z,979.82
2018-12-02T07:42:59.838Z,979.71
2018-12-02T07:52:59.849Z,979.83
2018-12-02T08:02:59.832Z,979.81
2018-12-02T08:12:59.789Z,979.80
2018-12-02T08:22:59.851Z,979.74
2018-12-02T08:32:59.848Z,979.86
2018-12-02T08:42:59.801Z,979.86
2018-12-02T08:52:59.868Z,979.98
2018-12-02T09:02:59.821Z,979.91
2018-12-02T09:12:59.875Z,980.10
2018-12-02T09:23:00.674Z,980.09
2018-12-02T09:32:59.842Z,980.18
2018-12-02T09:42:59.903Z,980.33
2018-12-02T09:52:59.815Z,980.29
2018-12-02T10:02:59.794Z,980.46
2018-12-02T10:12:59.890Z,980.44
2018-12-02T10:22:59.902Z,980.54
2018-12-02T10:32:59.825Z,980.25
2018-12-02T10:43:00.054Z,980.49
2018-12-02T10:52:59.812Z,980.56
2018-12-02T11:02:59.774Z,980.46
2018-12-02T11:12:59.756Z,980.59
2018-12-02T11:22:59.845Z,980.75
2018-12-02T11:32:59.717Z,980.66
2018-12-02T11:42:59.917Z,980.64
2018-12-02T11:52:59.886Z,980.78
2018-12-02T12:02:59.882Z,980.85
2018-12-02T12:12:59.964Z,981.06
2018-12-02T12:22:59.766Z,980.90
2018-12-02T12:32:59.795Z,980.94
2018-12-02T12:42:59.822Z,980.91
2018-12-02T12:52:59.809Z,980.95
2018-12-02T13:03:00.128Z,981.04
2018-12-02T13:12:59.853Z,981.04
2018-12-02T13:22:59.821Z,981.11
2018-12-02T13:32:59.814Z,981.26
2018-12-02T13:42:59.975Z,981.23
2018-12-02T13:52:59.831Z,981.35
2018-12-02T14:02:59.810Z,981.31
2018-12-02T14:12:59.958Z,981.42
2018-12-02T14:22:59.829Z,981.47
2018-12-02T14:33:03.961Z,981.54
2018-12-02T14:42:59.772Z,981.58
2018-12-02T14:52:59.720Z,981.73
2018-12-02T15:02:59.763Z,981.72
2018-12-02T15:13:00.008Z,981.72
2018-12-02T15:22:59.755Z,981.88
2018-12-02T15:32:59.760Z,982.08
2018-12-02T15:42:59.844Z,981.92
2018-12-02T15:52:59.848Z,981.83
2018-12-02T16:02:59.842Z,981.91
2018-12-02T16:12:59.826Z,981.89
2018-12-02T16:22:59.848Z,981.85
2018-12-02T16:32:59.767Z,981.98
2018-12-02T16:43:00.373Z,982.01
2018-12-02T16:52:59.756Z,981.95
2018-12-02T17:02:59.876Z,981.96
2018-12-02T17:12:59.853Z,981.96
2018-12-02T17:22:59.868Z,981.96
2018-12-02T17:32:59.791Z,982.11
2018-12-02T17:42:59.835Z,982.30
2018-12-02T17:52:59.829Z,982.36
2018-12-02T18:02:59.851Z,982.49
2018-12-02T18:12:59.862Z,982.51
2018-12-02T18:22:59.819Z,982.56
2018-12-02T18:32:59.873Z,982.51
2018-12-02T18:42:59.786Z,982.51
2018-12-02T18:53:00.112Z,982.49
2018-12-02T19:02:59.867Z,982.39
2018-12-02T19:12:59.845Z,982.37
2018-12-02T19:23:00.047Z,982.37
2018-12-02T19:32:59.769Z,982.23
2018-12-02T19:42:59.768Z,982.21
2018-12-02T19:52:59.844Z,982.15
2018-12-02T20:02:59.820Z,982.15
2018-12-02T20:12:59.782Z,982.15
2018-12-02T20:22:59.773Z,982.07
2018-12-02T20:32:59.871Z,982.01
2018-12-02T20:42:59.852Z,981.91
2018-12-02T20:52:59.766Z,981.84
2018-12-02T21:02:59.774Z,981.84
2018-12-02T21:12:59.865Z,981.77
2018-12-02T21:22:59.793Z,982.06
2018-12-02T21:32:59.777Z,981.86
2018-12-02T21:42:59.789Z,982.04
2018-12-02T21:52:59.869Z,981.93
2018-12-02T22:02:59.760Z,981.93
2018-12-02T22:12:59.849Z,982.19
2018-12-02T22:22:59.688Z,982.16
2018-12-02T22:32:59.785Z,981.83
2018-12-02T22:42:59.789Z,981.74
2018-12-02T22:52:59.819Z,981.78
2018-12-02T23:02:59.787Z,981.69
2018-12-02T23:12:59.753Z,981.72
2018-12-02T23:22:59.817Z,981.83
2018-12-02T23:32:59.991Z,981.87
2018-12-02T23:42:59.753Z,981.84
2018-12-02T23:52:59.721Z,981.94
